Latest Weather Observations for Urandangi

IDQ60801

Issued at 6:35 pm EST Friday 31 October 2014 (issued every 30 minutes, with the page automatically refreshed every 10 minutes)

About weather observations | Map of weather stations | Latest weather observations for QLD | Other Formats
Station Details ID: 037058 Name: URANDANGI AERODROME Lat: -21.60 Lon: 138.37 Height: 178.6 m
Data from the previous 72 hours. | See also: Recent months at Urandangi
Date/Time
EST
Temp
°C
App
Temp
°C
Dew
Point
Rel
Hum
%
Delta-T
°C
Wind Press
QNH
hPa
Press
MSL
hPa
Rain
since 9 am
mm
Dir
 
Spd
km/h
Gust
km/h
Spd
kts
Gust
kts
31/06:30pm 39.5 36.0 -2.6 7 20.8 W 6 9 3 5 1006.3 1005.2 0.0
31/06:00pm 40.4 36.8 -2.0 7 21.2 SSW 7 13 4 7 1005.9 1004.9 0.0
31/05:30pm 41.0 36.8 -3.6 6 21.8 WSW 9 20 5 11 1005.7 1004.7 0.0
31/05:00pm 40.5 37.2 -4.0 6 21.6 W 4 7 2 4 1005.8 1004.8 0.0
31/04:30pm 41.9 36.4 -5.4 5 22.6 W 15 20 8 11 1005.8 1004.8 0.0
31/04:00pm 41.3 37.5 -5.8 5 22.4 W 6 11 3 6 1005.9 1004.9 0.0
31/03:30pm 41.4 37.0 -5.8 5 22.4 NNE 9 19 5 10 1006.2 1005.1 0.0
31/03:00pm 41.0 36.2 -6.0 5 22.2 NE 11 17 6 9 1006.4 1005.4 0.0
31/02:30pm 40.5 36.4 -6.4 5 21.9 N 7 17 4 9 1006.7 1005.7 0.0
31/02:00pm 41.4 37.6 -5.8 5 22.4 N 6 15 3 8 1007.0 1006.0 0.0
31/01:30pm 40.3 36.2 -6.5 5 21.8 NW 7 22 4 12 1007.6 1006.6 0.0
31/01:00pm 41.3 36.5 -5.8 5 22.4 ENE 11 24 6 13 1008.1 1007.1 0.0
31/12:30pm 40.9 35.3 -6.1 5 22.1 N 15 30 8 16 1008.7 1007.7 0.0
31/12:00pm 39.6 35.1 -7.0 5 21.5 N 9 22 5 12 1009.2 1008.2 0.0
31/11:30am 39.8 34.5 -6.9 5 21.5 N 13 24 7 13 1009.6 1008.6 0.0
31/11:00am 39.0 33.3 -7.4 5 21.1 NNE 15 24 8 13 1010.1 1009.1 0.0
31/10:30am 38.6 32.5 -7.7 5 20.9 NE 17 24 9 13 1010.5 1009.5 0.0
31/10:00am 37.6 31.1 -6.0 6 20.1 E 20 26 11 14 1010.4 1009.4 0.0
31/09:30am 35.9 29.3 -7.2 6 19.2 E 20 28 11 15 1010.8 1009.8 0.0
31/09:00am 33.9 27.3 -6.7 7 18.0 ENE 20 24 11 13 1010.8 1009.8 0.0
31/08:30am 32.1 26.1 -6.3 8 16.9 ENE 17 20 9 11 1010.7 1009.7 0.0
31/08:00am 29.9 24.9 -7.9 8 15.9 NE 11 17 6 9 1010.6 1009.6 0.0
31/07:30am 27.6 23.4 -8.1 9 14.6 ENE 7 11 4 6 1010.3 1009.3 0.0
31/07:00am 22.9 18.9 -8.0 12 12.1 ESE 6 7 3 4 1009.9 1008.9 0.0
31/06:30am 19.4 15.7 -8.7 14 10.4 ESE 4 6 2 3 1009.4 1008.4 0.0
31/06:00am 19.4 16.4 -8.7 14 10.5 ESE 0 0 0 0 1009.1 1008.1 0.0
31/05:30am 20.5 17.2 -8.8 13 11.0 ESE 2 4 1 2 1008.9 1007.9 0.0
31/05:00am 21.0 17.3 -8.4 13 11.2 ESE 4 4 2 2 1008.7 1007.7 0.0
31/04:30am 21.3 17.0 -9.2 12 11.5 ESE 7 7 4 4 1008.6 1007.6 0.0
31/04:00am 22.3 18.0 -8.4 12 11.9 ESE 7 7 4 4 1008.6 1007.6 0.0
31/03:30am 20.6 16.2 -9.8 12 11.2 ESE 7 9 4 5 1008.3 1007.3 0.0
31/03:00am 20.5 15.8 -9.8 12 11.2 ESE 9 11 5 6 1008.4 1007.4 0.0
31/02:30am 21.4 17.3 -9.1 12 11.5 ESE 6 7 3 4 1008.6 1007.6 0.0
31/02:00am 21.7 17.3 -10.0 11 11.8 ESE 7 9 4 5 1008.7 1007.7 0.0
31/01:30am 22.5 18.4 -9.4 11 12.1 ESE 6 6 3 3 1009.1 1008.1 0.0
31/01:00am 23.4 19.2 -7.6 12 12.3 S 7 9 4 5 1009.4 1008.4 0.0
31/12:30am 22.2 19.2 -9.6 11 12.0 SSE 0 0 0 0 1010.0 1009.0 0.0
31/12:00am 23.0 20.0 -9.0 11 12.3 SSE 0 0 0 0 1010.3 1009.3 0.0
 
Date/Time
EST
Temp
°C
App
Temp
°C
Dew
Point
Rel
Hum
%
Delta-T
°C
Wind Press
QNH
hPa
Press
MSL
hPa
Rain
since 9 am
mm
Dir
 
Spd
km/h
Gust
km/h
Spd
kts
Gust
kts
30/11:30pm 23.3 19.9 -10.0 10 12.6 S 2 4 1 2 1010.5 1009.5 0.0
30/11:00pm 23.8 20.8 -9.6 10 12.8 CALM 0 2 0 1 1010.7 1009.7 0.0
30/10:30pm 25.2 21.9 -8.5 10 13.4 S 2 4 1 2 1010.7 1009.7 0.0
30/10:00pm 25.8 22.0 -9.4 9 13.8 S 4 4 2 2 1010.6 1009.6 0.0
30/09:30pm 26.7 23.0 -8.8 9 14.2 S 4 4 2 2 1010.4 1009.4 0.0
30/09:00pm 27.8 24.2 -7.9 9 14.7 S 4 4 2 2 1010.2 1009.2 0.0
30/08:30pm 29.1 25.0 -7.0 9 15.3 S 7 7 4 4 1010.0 1009.0 0.0
30/08:00pm 31.2 27.1 -6.9 8 16.5 S 7 9 4 5 1009.6 1008.6 0.0
30/07:30pm 32.0 27.4 -8.1 7 17.1 S 9 11 5 6 1009.2 1008.2 0.0
30/07:00pm 35.3 30.1 -5.7 7 18.7 S 13 19 7 10 1008.8 1007.8 0.0
30/06:30pm 37.0 31.0 -6.5 6 19.8 S 17 24 9 13 1008.5 1007.5 0.0
30/06:00pm 38.0 31.7 -5.8 6 20.3 S 19 28 10 15 1008.0 1007.0 0.0
30/05:30pm 38.3 31.8 -5.5 6 20.4 S 20 32 11 17 1007.8 1006.8 0.0
30/05:00pm 38.8 32.6 -5.2 6 20.7 S 19 28 10 15 1007.8 1006.8 0.0
30/04:30pm 39.0 32.6 -5.1 6 20.8 SSE 20 33 11 18 1007.7 1006.7 0.0
30/04:00pm 39.2 32.4 -4.9 6 20.9 S 22 28 12 15 1007.9 1006.9 0.0
30/03:30pm 39.2 33.1 -7.3 5 21.2 SE 17 24 9 13 1008.0 1007.0 0.0
30/03:00pm 38.9 32.4 -7.5 5 21.1 S 19 28 10 15 1008.4 1007.4 0.0
30/02:30pm 39.8 32.8 -6.9 5 21.5 SSE 22 35 12 19 1008.6 1007.6 0.0
30/02:00pm 39.6 31.5 -7.0 5 21.5 S 28 33 15 18 1009.1 1008.1 0.0
30/01:30pm 39.4 33.0 -4.8 6 21.0 SSE 20 35 11 19 1009.6 1008.6 0.0
30/01:00pm 38.6 32.7 -5.3 6 20.6 S 17 22 9 12 1010.2 1009.2 0.0
30/12:30pm 38.2 32.7 -5.6 6 20.4 S 15 26 8 14 1010.6 1009.6 0.0
30/12:00pm 38.3 33.9 -5.5 6 20.4 SSE 9 19 5 10 1011.3 1010.4 0.0
30/11:30am 37.0 31.8 -6.5 6 19.8 ESE 13 24 7 13 1011.8 1010.9 0.0
30/11:00am 36.2 31.3 -7.0 6 19.4 SE 11 20 6 11 1012.3 1011.3 0.0
30/10:30am 35.8 29.9 -5.3 7 18.9 SE 17 24 9 13 1012.7 1011.7 0.0
30/10:00am 35.1 28.6 -5.8 7 18.5 SE 20 28 11 15 1012.9 1011.9 0.0
30/09:30am 34.1 27.9 -4.8 8 17.8 ESE 19 24 10 13 1013.1 1012.1 0.0
30/09:00am 31.5 24.9 -6.7 8 16.6 ESE 20 26 11 14 1013.1 1012.1 0.0
30/08:30am 29.0 23.0 -7.0 9 15.2 SE 17 24 9 13 1013.3 1012.3 0.0
30/08:00am 26.9 21.1 -8.6 9 14.3 SE 15 22 8 12 1013.2 1012.2 0.0
30/07:30am 24.6 19.9 -9.0 10 13.1 SE 9 15 5 8 1013.1 1012.1 0.0
30/07:00am 20.4 16.3 -8.9 13 11.0 SE 6 9 3 5 1013.0 1012.0 0.0
30/06:30am 17.6 13.5 -9.3 15 9.7 SE 6 6 3 3 1012.5 1011.5 0.0
30/06:00am 17.1 12.4 -9.7 15 9.5 ESE 9 11 5 6 1012.2 1011.2 0.0
30/05:30am 17.8 13.0 -10.0 14 9.9 ESE 9 9 5 5 1011.9 1011.0 0.0
30/05:00am 18.6 14.3 -9.4 14 10.2 ESE 7 9 4 5 1011.7 1010.8 0.0
30/04:30am 19.3 14.9 -9.8 13 10.6 ESE 7 7 4 4 1011.7 1010.8 0.0
30/04:00am 19.6 15.4 -10.5 12 10.8 SE 6 6 3 3 1011.6 1010.7 0.0
30/03:30am 19.8 15.4 -10.4 12 10.9 SE 7 7 4 4 1011.6 1010.7 0.0
30/03:00am 20.6 16.2 -9.8 12 11.2 SE 7 9 4 5 1011.7 1010.8 0.0
30/02:30am 20.8 16.6 -9.6 12 11.3 ESE 6 6 3 3 1011.8 1010.9 0.0
30/02:00am 20.8 16.6 -10.7 11 11.4 ESE 6 6 3 3 1012.1 1011.1 0.0
30/01:30am 22.0 17.6 -9.8 11 11.9 ESE 7 9 4 5 1012.3 1011.3 0.0
30/01:00am 21.6 16.4 -10.1 11 11.8 ESE 11 11 6 6 1012.4 1011.4 0.0
30/12:30am 22.2 18.0 -9.6 11 12.0 SSE 6 7 3 4 1012.7 1011.7 0.0
30/12:00am 23.4 19.2 -9.9 10 12.6 SSE 6 7 3 4 1012.9 1011.9 0.0
 
Date/Time
EST
Temp
°C
App
Temp
°C
Dew
Point
Rel
Hum
%
Delta-T
°C
Wind Press
QNH
hPa
Press
MSL
hPa
Rain
since 9 am
mm
Dir
 
Spd
km/h
Gust
km/h
Spd
kts
Gust
kts
29/11:30pm 24.3 20.0 -9.2 10 13.0 SSE 7 9 4 5 1013.0 1012.0 0.0
29/11:00pm 24.9 20.8 -8.8 10 13.3 SSE 6 7 3 4 1013.3 1012.3 0.0
29/10:30pm 26.7 21.3 -8.8 9 14.2 SSE 13 13 7 7 1013.2 1012.2 0.0
29/10:00pm 26.7 21.6 -8.8 9 14.2 SSE 11 13 6 7 1013.1 1012.1 0.0
29/09:30pm 27.2 21.8 -8.4 9 14.4 SSE 13 15 7 8 1012.9 1011.9 0.0
29/09:00pm 27.5 22.5 -8.2 9 14.6 SSE 11 13 6 7 1012.5 1011.5 0.0
29/08:30pm 28.9 24.0 -7.1 9 15.2 SSE 11 13 6 7 1012.3 1011.3 0.0
29/08:00pm 30.0 25.0 -7.8 8 15.9 SSE 11 13 6 7 1011.9 1011.0 0.0
29/07:30pm 31.6 26.6 -8.3 7 16.9 S 11 13 6 7 1011.6 1010.7 0.0
29/07:00pm 34.5 28.7 -8.2 6 18.5 SSE 15 19 8 10 1011.2 1010.2 0.0
29/06:30pm 36.4 30.4 -6.9 6 19.5 SSE 17 22 9 12 1011.0 1010.0 0.0
29/06:00pm 37.4 30.7 -8.5 5 20.3 SSE 20 30 11 16 1010.6 1009.6 0.0
29/05:30pm 38.5 32.0 -7.8 5 20.9 S 19 32 10 17 1010.3 1009.3 0.0
29/05:00pm 38.6 32.7 -5.3 6 20.6 SE 17 28 9 15 1010.4 1009.4 0.0
29/04:30pm 38.7 32.5 -5.3 6 20.6 SSE 19 26 10 14 1010.3 1009.3 0.0
29/04:00pm 39.1 32.7 -5.0 6 20.9 SSE 20 26 11 14 1010.3 1009.3 0.0
29/03:30pm 38.9 32.5 -5.1 6 20.7 S 20 30 11 16 1010.5 1009.5 0.0
29/03:00pm 38.7 33.6 -5.3 6 20.7 SSE 13 24 7 13 1010.9 1009.9 0.0
29/02:30pm 38.8 32.4 -5.2 6 20.7 SSE 20 30 11 16 1011.2 1010.2 0.0
29/02:00pm 38.6 32.7 -5.3 6 20.6 SSE 17 32 9 17 1011.6 1010.7 0.0
29/01:30pm 37.7 32.1 -6.0 6 20.1 SSE 15 32 8 17 1012.1 1011.1 0.0
29/01:00pm 38.0 31.5 -5.8 6 20.3 S 20 30 11 16 1012.5 1011.5 0.0
29/12:30pm 37.4 32.2 -6.2 6 20.0 SSE 13 20 7 11 1013.1 1012.1 0.0
29/12:00pm 36.9 30.9 -6.5 6 19.7 SE 17 26 9 14 1013.6 1012.6 0.0
29/11:30am 35.9 29.3 -7.2 6 19.2 SE 20 30 11 16 1014.1 1013.1 0.0
29/11:00am 35.7 29.1 -7.4 6 19.1 ESE 20 30 11 16 1014.4 1013.4 0.0
29/10:30am 34.5 27.6 -6.3 7 18.3 ESE 22 30 12 16 1014.8 1013.8 0.0
29/10:00am 32.5 25.8 -7.7 7 17.3 ESE 20 28 11 15 1015.0 1014.0 0.0
29/09:30am 31.8 25.2 -6.5 8 16.7 ESE 20 28 11 15 1015.3 1014.3 0.0
29/09:00am 30.0 23.1 -6.3 9 15.7 SE 22 26 12 14 1015.3 1014.3 0.0
29/08:30am 28.3 21.8 -6.2 10 14.7 SE 20 26 11 14 1015.4 1014.4 0.0
29/08:00am 26.5 19.7 -5.2 12 13.5 SE 22 30 12 16 1015.2 1014.2 0.0
29/07:30am 25.2 19.0 -5.1 13 12.8 SSE 19 28 10 15 1015.2 1014.2 0.0
29/07:00am 23.9 18.5 -4.3 15 12.0 SSE 15 22 8 12 1014.9 1013.9 0.0
29/06:30am 20.8 16.2 -4.4 18 10.4 SSE 11 13 6 7 1014.6 1013.6 0.0
29/06:00am 21.2 16.9 -4.8 17 10.6 SSE 9 11 5 6 1014.5 1013.5 0.0
29/05:30am 22.7 18.0 -5.2 15 11.5 SSE 11 15 6 8 1014.2 1013.2 0.0
29/05:00am 23.9 18.4 -5.2 14 12.1 SSE 15 19 8 10 1013.9 1012.9 0.0
29/04:30am 24.5 18.7 -4.7 14 12.4 SSE 17 20 9 11 1013.6 1012.6 0.0
29/04:00am 24.8 19.3 -5.5 13 12.7 S 15 22 8 12 1013.4 1012.4 0.0
29/03:30am 25.5 19.2 -6.0 12 13.1 SSE 19 24 10 13 1013.3 1012.3 0.0
29/03:00am 26.0 20.1 -5.6 12 13.3 SSE 17 22 9 12 1013.2 1012.2 0.0
29/02:30am 26.1 20.5 -6.6 11 13.6 SSE 15 19 8 10 1013.2 1012.2 0.0
29/02:00am 26.2 20.6 -6.5 11 13.6 SSE 15 19 8 10 1013.2 1012.2 0.0
29/01:30am 26.7 21.1 -6.2 11 13.8 S 15 20 8 11 1013.2 1012.2 0.0
29/01:00am 26.8 21.6 -6.1 11 13.9 SSE 13 15 7 8 1013.4 1012.4 0.0
29/12:30am 28.0 22.4 -6.4 10 14.6 SSE 15 19 8 10 1013.4 1012.4 0.0
29/12:00am 28.9 23.0 -5.7 10 14.9 SSE 17 22 9 12 1013.5 1012.5 0.0
 
Date/Time
EST
Temp
°C
App
Temp
°C
Dew
Point
Rel
Hum
%
Delta-T
°C
Wind Press
QNH
hPa
Press
MSL
hPa
Rain
since 9 am
mm
Dir
 
Spd
km/h
Gust
km/h
Spd
kts
Gust
kts
28/11:30pm 29.1 23.2 -5.6 10 15.0 S 17 22 9 12 1013.6 1012.6 0.0
28/11:00pm 29.4 24.0 -4.1 11 14.9 S 15 20 8 11 1013.7 1012.7 0.0
28/10:30pm 29.8 24.6 -2.6 12 14.9 S 15 19 8 10 1013.6 1012.6 0.0
28/10:00pm 30.8 24.9 -1.9 12 15.3 S 19 24 10 13 1013.5 1012.5 0.0
28/09:30pm 31.5 26.1 -1.3 12 15.6 S 17 28 9 15 1013.3 1012.3 0.0
28/09:00pm 31.8 26.8 -1.1 12 15.7 S 15 20 8 11 1013.1 1012.1 0.0
28/08:30pm 32.4 27.5 -0.6 12 16.0 S 15 20 8 11 1012.8 1011.8 0.0
28/08:00pm 33.4 28.6 0.1 12 16.4 S 15 20 8 11 1012.6 1011.6 0.0
28/07:30pm 34.1 29.0 0.7 12 16.7 S 17 20 9 11 1012.3 1011.3 0.0
28/07:00pm 35.2 29.7 0.3 11 17.5 S 19 30 10 16 1011.9 1011.0 0.0

Other Formats:

Comma delimited format used in spreadsheet applications
http://www.bom.gov.au/fwo/IDQ60801/IDQ60801.94344.axf

JavaScript Object Notation format (JSON) in row-major order
http://www.bom.gov.au/fwo/IDQ60801/IDQ60801.94344.json